createdAt,value
2016-04-11T00:00:07.146Z,0
2016-04-11T00:01:07.117Z,0
2016-04-11T00:02:07.089Z,0
2016-04-11T00:03:07.060Z,0
2016-04-11T00:04:07.047Z,0
2016-04-11T00:05:07.018Z,0
2016-04-11T00:06:06.989Z,0
2016-04-11T00:07:06.978Z,0
2016-04-11T00:08:06.933Z,0
2016-04-11T00:09:06.920Z,0
2016-04-11T00:10:06.892Z,0
2016-04-11T00:11:06.879Z,0
2016-04-11T00:12:06.912Z,0
2016-04-11T00:13:06.821Z,0
2016-04-11T00:14:06.792Z,0
2016-04-11T00:15:06.765Z,0
2016-04-11T00:16:06.737Z,0
2016-04-11T00:17:06.723Z,0
2016-04-11T00:18:06.695Z,0
2016-04-11T00:19:06.667Z,0
2016-04-11T00:20:06.654Z,0
2016-04-11T00:21:06.625Z,0
2016-04-11T00:22:06.612Z,0
2016-04-11T00:23:06.568Z,0
2016-04-11T00:24:06.555Z,0
2016-04-11T00:25:06.527Z,0
2016-04-11T00:26:06.497Z,0
2016-04-11T00:27:06.485Z,0
2016-04-11T00:28:06.441Z,0
2016-04-11T00:29:06.428Z,0
2016-04-11T00:30:06.415Z,0
2016-04-11T00:31:06.371Z,0
2016-04-11T00:32:06.358Z,0
2016-04-11T00:33:06.354Z,0
2016-04-11T00:34:06.302Z,0
2016-04-11T00:35:06.273Z,0
2016-04-11T00:36:06.271Z,0
2016-04-11T00:37:06.236Z,0
2016-04-11T00:38:06.192Z,0
2016-04-11T00:39:06.164Z,0
2016-04-11T00:40:06.135Z,0
2016-04-11T00:41:06.107Z,0
2016-04-11T00:42:06.515Z,0
2016-04-11T00:43:06.065Z,0
2016-04-11T00:44:06.037Z,0
2016-04-11T00:45:06.008Z,0
2016-04-11T00:46:05.995Z,0
2016-04-11T00:47:05.966Z,0
2016-04-11T00:48:05.938Z,0
2016-04-11T00:49:05.910Z,0
2016-04-11T00:50:05.896Z,0
2016-04-11T00:51:05.868Z,0
2016-04-11T00:52:05.840Z,0
2016-04-11T00:53:05.827Z,0
2016-04-11T00:54:05.782Z,0
2016-04-11T00:55:05.770Z,0
2016-04-11T00:56:05.740Z,0
2016-04-11T00:57:05.775Z,0
2016-04-11T00:58:05.684Z,0
2016-04-11T00:59:05.655Z,0
2016-04-11T01:00:05.642Z,0
2016-04-11T01:01:05.614Z,0
2016-04-11T01:02:05.585Z,0
2016-04-11T01:03:05.588Z,0
2016-04-11T01:04:05.527Z,0
2016-04-11T01:05:05.514Z,0
2016-04-11T01:06:05.486Z,0
2016-04-11T01:07:05.458Z,0
2016-04-11T01:08:05.445Z,0
2016-04-11T01:09:05.401Z,0
2016-04-11T01:10:05.393Z,0
2016-04-11T01:11:05.364Z,0
2016-04-11T01:12:05.679Z,0
2016-04-11T01:13:05.307Z,0
2016-04-11T01:14:05.279Z,0
2016-04-11T01:15:05.249Z,0
2016-04-11T01:16:05.253Z,0
2016-04-11T01:17:05.209Z,0
2016-04-11T01:18:05.196Z,0
2016-04-11T01:19:05.151Z,0
2016-04-11T01:20:05.138Z,0
2016-04-11T01:21:05.110Z,0
2016-04-11T01:22:05.065Z,0
2016-04-11T01:23:05.053Z,0
2016-04-11T01:24:05.023Z,0
2016-04-11T01:25:04.995Z,0
2016-04-11T01:26:04.983Z,0
2016-04-11T01:27:05.001Z,0
2016-04-11T01:28:04.925Z,0
2016-04-11T01:29:04.897Z,0
2016-04-11T01:30:04.869Z,0
2016-04-11T01:31:04.839Z,0
2016-04-11T01:32:04.811Z,0
2016-04-11T01:33:04.798Z,0
2016-04-11T01:34:04.770Z,0
2016-04-11T01:35:04.741Z,0
2016-04-11T01:36:04.713Z,0
2016-04-11T01:37:04.683Z,0
2016-04-11T01:38:04.671Z,0
2016-04-11T01:39:04.643Z,0
2016-04-11T01:40:04.613Z,0
2016-04-11T01:41:04.586Z,0
2016-04-11T01:42:04.666Z,0
2016-04-11T01:43:03.810Z,0
2016-04-11T01:44:04.499Z,0
2016-04-11T01:45:04.487Z,0
2016-04-11T01:46:04.458Z,0
2016-04-11T01:47:04.430Z,0
2016-04-11T01:48:04.417Z,0
2016-04-11T01:49:04.373Z,0
2016-04-11T01:50:04.359Z,0
2016-04-11T01:51:04.346Z,0
2016-04-11T01:52:04.303Z,0
2016-04-11T01:53:04.290Z,0
2016-04-11T01:54:04.246Z,0
2016-04-11T01:55:04.217Z,0
2016-04-11T01:56:04.204Z,0
2016-04-11T01:57:04.191Z,0
2016-04-11T01:58:04.162Z,0
2016-04-11T01:59:04.118Z,0
2016-04-11T02:00:04.089Z,0
2016-04-11T02:01:04.077Z,0
2016-04-11T02:02:04.047Z,0
2016-04-11T02:03:04.019Z,0
2016-04-11T02:04:03.991Z,0
2016-04-11T02:05:03.978Z,0
2016-04-11T02:06:03.933Z,0
2016-04-11T02:07:03.922Z,0
2016-04-11T02:08:03.892Z,0
2016-04-11T02:09:03.864Z,0
2016-04-11T02:10:03.835Z,0
2016-04-11T02:11:03.807Z,0
2016-04-11T02:12:03.794Z,0
2016-04-11T02:13:03.765Z,0
2016-04-11T02:14:03.737Z,0
2016-04-11T02:15:03.692Z,0
2016-04-11T02:16:03.680Z,0
2016-04-11T02:17:03.651Z,0
2016-04-11T02:18:03.623Z,0
2016-04-11T02:19:03.609Z,0
2016-04-11T02:20:03.566Z,0
2016-04-11T02:21:03.537Z,0
2016-04-11T02:22:03.539Z,0
2016-04-11T02:23:03.495Z,0
2016-04-11T02:24:03.467Z,0
2016-04-11T02:25:03.454Z,0
2016-04-11T02:26:03.409Z,0
2016-04-11T02:27:03.412Z,0
2016-04-11T02:28:03.352Z,0
2016-04-11T02:29:03.339Z,0
2016-04-11T02:30:03.311Z,0
2016-04-11T02:31:03.283Z,0
2016-04-11T02:32:03.269Z,0
2016-04-11T02:33:03.242Z,0
2016-04-11T02:34:03.212Z,0
2016-04-11T02:35:03.200Z,0
2016-04-11T02:36:03.186Z,0
2016-04-11T02:37:03.127Z,0
2016-04-11T02:38:03.098Z,0
2016-04-11T02:39:03.070Z,0
2016-04-11T02:40:03.041Z,0
2016-04-11T02:41:03.028Z,0
2016-04-11T02:42:02.983Z,0
2016-04-11T02:43:02.971Z,0
2016-04-11T02:44:02.942Z,0
2016-04-11T02:45:02.913Z,0
2016-04-11T02:46:02.901Z,0
2016-04-11T02:47:02.857Z,0
2016-04-11T02:48:02.829Z,0
2016-04-11T02:49:02.815Z,0
2016-04-11T02:50:02.786Z,0
2016-04-11T02:51:02.757Z,0
2016-04-11T02:52:02.729Z,0
2016-04-11T02:53:02.685Z,0
2016-04-11T02:54:02.687Z,0
2016-04-11T02:55:02.643Z,0
2016-04-11T02:56:02.614Z,0
2016-04-11T02:57:02.603Z,0
2016-04-11T02:58:02.573Z,0
2016-04-11T02:59:02.545Z,0
2016-04-11T03:00:02.532Z,0
2016-04-11T03:01:02.489Z,0
2016-04-11T03:02:02.475Z,0
2016-04-11T03:03:02.430Z,0
2016-04-11T03:04:02.402Z,0
2016-04-11T03:05:02.389Z,0
2016-04-11T03:06:02.345Z,0
2016-04-11T03:07:02.332Z,0
2016-04-11T03:08:02.303Z,0
2016-04-11T03:09:02.274Z,0
2016-04-11T03:10:02.246Z,0
2016-04-11T03:11:02.233Z,0
2016-04-11T03:12:02.205Z,0
2016-04-11T03:13:02.176Z,0
2016-04-11T03:14:02.133Z,0
2016-04-11T03:15:02.119Z,0
2016-04-11T03:16:02.091Z,0
2016-04-11T03:17:02.062Z,0
2016-04-11T03:18:02.049Z,0
2016-04-11T03:19:02.005Z,0
2016-04-11T03:20:01.992Z,0
2016-04-11T03:21:01.948Z,0
2016-04-11T03:22:01.935Z,0
2016-04-11T03:23:01.906Z,0
2016-04-11T03:24:01.878Z,0
2016-04-11T03:25:01.865Z,0
2016-04-11T03:26:01.820Z,0
2016-04-11T03:27:01.808Z,0
2016-04-11T03:28:01.764Z,0
2016-04-11T03:29:01.751Z,0
2016-04-11T03:30:01.722Z,0
2016-04-11T03:31:01.694Z,0
2016-04-11T03:32:01.664Z,0
2016-04-11T03:33:01.652Z,0
2016-04-11T03:34:01.608Z,0
2016-04-11T03:35:01.580Z,0
2016-04-11T03:36:01.566Z,0
2016-04-11T03:37:01.522Z,0
2016-04-11T03:38:01.508Z,0
2016-04-11T03:39:01.481Z,0
2016-04-11T03:40:01.452Z,0
2016-04-11T03:41:01.424Z,0
2016-04-11T03:42:01.395Z,0
2016-04-11T03:43:01.367Z,0
2016-04-11T03:44:01.338Z,0
2016-04-11T03:45:01.310Z,0
2016-04-11T03:46:01.296Z,0
2016-04-11T03:47:01.268Z,0
2016-04-11T03:48:01.240Z,0
2016-04-11T03:49:01.211Z,0
2016-04-11T03:50:01.182Z,0
2016-04-11T03:51:01.169Z,0
2016-04-11T03:52:01.125Z,0
2016-04-11T03:53:01.112Z,0
2016-04-11T03:54:01.099Z,0
2016-04-11T03:55:01.039Z,0
2016-04-11T03:56:01.026Z,0
2016-04-11T03:57:00.998Z,0
2016-04-11T03:58:00.970Z,0
2016-04-11T03:59:00.940Z,0
2016-04-11T04:00:00.912Z,0
2016-04-11T04:01:00.883Z,0
2016-04-11T04:02:00.856Z,0
2016-04-11T04:03:00.826Z,0
2016-04-11T04:04:00.798Z,0
2016-04-11T04:05:00.785Z,0
2016-04-11T04:06:00.741Z,0
2016-04-11T04:07:00.727Z,0
2016-04-11T04:08:00.715Z,4
2016-04-11T04:09:00.671Z,4
2016-04-11T04:10:00.658Z,0
2016-04-11T04:11:00.629Z,4
2016-04-11T04:12:00.586Z,4
2016-04-11T04:13:00.557Z,4
2016-04-11T04:14:00.528Z,8
2016-04-11T04:15:00.499Z,8
2016-04-11T04:16:00.486Z,8
2016-04-11T04:17:00.458Z,8
2016-04-11T04:18:00.430Z,12
2016-04-11T04:19:00.401Z,16
2016-04-11T04:20:00.372Z,16
2016-04-11T04:21:00.343Z,20
2016-04-11T04:22:00.315Z,24
2016-04-11T04:23:00.287Z,28
2016-04-11T04:24:00.307Z,36
2016-04-11T04:25:00.306Z,40
2016-04-11T04:26:00.338Z,48
2016-04-11T04:27:00.352Z,56
2016-04-11T04:28:00.368Z,64
2016-04-11T04:29:00.377Z,76
2016-04-11T04:30:00.349Z,92
2016-04-11T04:31:00.335Z,104
2016-04-11T04:32:00.324Z,116
2016-04-11T04:33:00.311Z,136
2016-04-11T04:34:00.305Z,156
2016-04-11T04:35:00.266Z,176
2016-04-11T04:36:00.244Z,192
2016-04-11T04:37:00.222Z,216
2016-04-11T04:38:00.214Z,244
2016-04-11T04:39:00.189Z,272
2016-04-11T04:40:00.162Z,300
2016-04-11T04:41:00.135Z,328
2016-04-11T04:42:00.109Z,364
2016-04-11T04:43:00.098Z,400
2016-04-11T04:44:00.055Z,436
2016-04-11T04:45:00.058Z,472
2016-04-11T04:46:00.014Z,516
2016-04-11T04:46:59.971Z,560
2016-04-11T04:47:59.959Z,604
2016-04-11T04:48:59.931Z,652
2016-04-11T04:49:59.903Z,700
2016-04-11T04:50:59.872Z,752
2016-04-11T04:51:59.843Z,808
2016-04-11T04:52:59.831Z,860
2016-04-11T04:53:59.802Z,916
2016-04-11T04:54:59.774Z,976
2016-04-11T04:55:59.745Z,1036
2016-04-11T04:56:59.717Z,1096
2016-04-11T04:57:59.673Z,1156
2016-04-11T04:58:59.645Z,1220
2016-04-11T04:59:59.631Z,1284
2016-04-11T05:00:59.603Z,1352
2016-04-11T05:01:59.589Z,1420
2016-04-11T05:02:59.531Z,1488
2016-04-11T05:03:59.517Z,1560
2016-04-11T05:04:59.489Z,1632
2016-04-11T05:05:59.476Z,1700
2016-04-11T05:06:59.447Z,1776
2016-04-11T05:07:59.419Z,1848
2016-04-11T05:08:59.405Z,1920
2016-04-11T05:09:59.361Z,1992
2016-04-11T05:10:59.333Z,2068
2016-04-11T05:11:59.305Z,2144
2016-04-11T05:12:59.291Z,2216
2016-04-11T05:13:59.247Z,2292
2016-04-11T05:14:59.218Z,2364
2016-04-11T05:15:59.205Z,2440
2016-04-11T05:16:59.161Z,2516
2016-04-11T05:17:59.149Z,2592
2016-04-11T05:18:59.104Z,2668
2016-04-11T05:19:59.076Z,2748
2016-04-11T05:20:59.063Z,2820
2016-04-11T05:21:59.034Z,2896
2016-04-11T05:22:59.005Z,2964
2016-04-11T05:23:58.977Z,3032
2016-04-11T05:24:58.948Z,3108
2016-04-11T05:25:58.935Z,3176
2016-04-11T05:26:58.891Z,3248
2016-04-11T05:27:58.879Z,3316
2016-04-11T05:28:58.835Z,3384
2016-04-11T05:29:58.821Z,3456
2016-04-11T05:30:58.793Z,3520
2016-04-11T05:31:58.764Z,3584
2016-04-11T05:32:58.736Z,3648
2016-04-11T05:33:58.707Z,3708
2016-04-11T05:34:58.694Z,3772
2016-04-11T05:35:58.650Z,3828
2016-04-11T05:36:58.622Z,3892
2016-04-11T05:37:58.608Z,3956
2016-04-11T05:38:58.580Z,4016
2016-04-11T05:39:58.567Z,4080
2016-04-11T05:40:58.522Z,4144
2016-04-11T05:41:58.494Z,4204
2016-04-11T05:42:58.467Z,4256
2016-04-11T05:43:58.453Z,4320
2016-04-11T05:44:58.425Z,4396
2016-04-11T05:45:58.380Z,4448
2016-04-11T05:46:58.383Z,4504
2016-04-11T05:47:58.323Z,4556
2016-04-11T05:48:58.310Z,4608
2016-04-11T05:49:58.282Z,4660
2016-04-11T05:50:58.252Z,4708
2016-04-11T05:51:58.224Z,4760
2016-04-11T05:52:58.211Z,4812
2016-04-11T05:53:58.168Z,4860
2016-04-11T05:54:58.138Z,4924
2016-04-11T05:55:58.126Z,4984
2016-04-11T05:56:58.097Z,5040
2016-04-11T05:57:58.194Z,5092
2016-04-11T05:58:58.040Z,5140
2016-04-11T05:59:58.121Z,5192
2016-04-11T06:00:57.983Z,5252
2016-04-11T06:01:57.970Z,5304
2016-04-11T06:02:57.942Z,5352
2016-04-11T06:03:57.912Z,5408
2016-04-11T06:04:57.884Z,5444
2016-04-11T06:05:57.856Z,5504
2016-04-11T06:06:57.843Z,5560
2016-04-11T06:07:57.798Z,5616
2016-04-11T06:08:57.787Z,5676
2016-04-11T06:09:57.756Z,5720
2016-04-11T06:10:57.744Z,5756
2016-04-11T06:11:57.700Z,5792
2016-04-11T06:12:57.640Z,5832
2016-04-11T06:13:57.658Z,5872
2016-04-11T06:14:57.630Z,5920
2016-04-11T06:15:57.602Z,5948
2016-04-11T06:16:57.620Z,5992
2016-04-11T06:17:57.561Z,6040
2016-04-11T06:18:57.531Z,6088
2016-04-11T06:19:57.487Z,6148
2016-04-11T06:20:57.475Z,6184
2016-04-11T06:21:57.430Z,6220
2016-04-11T06:22:57.416Z,6248
2016-04-11T06:23:57.389Z,6300
2016-04-11T06:24:57.391Z,6344
2016-04-11T06:25:57.347Z,6360
2016-04-11T06:26:57.319Z,6392
2016-04-11T06:27:57.712Z,6420
2016-04-11T06:28:57.277Z,6464
2016-04-11T06:29:57.233Z,6520
2016-04-11T06:30:57.204Z,8424
2016-04-11T06:31:57.207Z,13664
2016-04-11T06:32:57.179Z,18048
2016-04-11T06:33:57.307Z,14604
2016-04-11T06:34:57.106Z,9868
2016-04-11T06:35:57.092Z,6756
2016-04-11T06:36:57.065Z,6688
2016-04-11T06:37:57.036Z,6728
2016-04-11T06:38:57.022Z,6764
2016-04-11T06:39:56.979Z,6804
2016-04-11T06:40:56.950Z,6852
2016-04-11T06:41:56.937Z,6884
2016-04-11T06:42:57.003Z,6920
2016-04-11T06:43:56.880Z,6980
2016-04-11T06:44:56.851Z,7016
2016-04-11T06:45:56.823Z,7052
2016-04-11T06:46:56.810Z,7084
2016-04-11T06:47:56.781Z,7112
2016-04-11T06:48:56.769Z,7156
2016-04-11T06:49:56.740Z,7188
2016-04-11T06:50:56.789Z,7200
2016-04-11T06:51:56.682Z,7220
2016-04-11T06:52:56.655Z,7248
2016-04-11T06:53:56.641Z,7280
2016-04-11T06:54:56.612Z,7300
2016-04-11T06:55:56.600Z,7344
2016-04-11T06:56:56.571Z,7384
2016-04-11T06:57:56.574Z,7384
2016-04-11T06:58:56.514Z,7408
2016-04-11T06:59:56.485Z,7448
2016-04-11T07:00:56.457Z,7472
2016-04-11T07:01:56.428Z,7484
2016-04-11T07:02:56.399Z,7504
2016-04-11T07:03:56.387Z,7520
2016-04-11T07:04:56.374Z,7548
2016-04-11T07:05:56.330Z,7604
2016-04-11T07:06:56.317Z,8032
2016-04-11T07:07:56.288Z,13636
2016-04-11T07:08:56.260Z,22656
2016-04-11T07:09:56.247Z,27936
2016-04-11T07:10:56.218Z,27968
2016-04-11T07:11:56.189Z,26816
2016-04-11T07:12:56.426Z,27264
2016-04-11T07:13:56.148Z,26304
2016-04-11T07:14:56.119Z,26240
2016-04-11T07:15:56.153Z,25696
2016-04-11T07:16:56.062Z,20800
2016-04-11T07:17:56.050Z,17632
2016-04-11T07:18:56.053Z,21824
2016-04-11T07:19:55.992Z,24512
2016-04-11T07:20:55.980Z,24064
2016-04-11T07:21:55.950Z,23424
2016-04-11T07:22:55.938Z,23264
2016-04-11T07:23:55.910Z,20704
2016-04-11T07:24:55.882Z,13972
2016-04-11T07:25:55.870Z,9316
2016-04-11T07:26:55.857Z,8260
2016-04-11T07:27:55.735Z,8504
2016-04-11T07:28:55.815Z,8976
2016-04-11T07:29:55.787Z,9800
2016-04-11T07:30:55.758Z,12072
2016-04-11T07:31:55.745Z,14680
2016-04-11T07:32:55.718Z,15792
2016-04-11T07:33:55.704Z,13356
2016-04-11T07:34:55.690Z,14196
2016-04-11T07:35:55.662Z,19712
2016-04-11T07:36:55.665Z,19104
2016-04-11T07:37:55.620Z,18560
2016-04-11T07:38:55.592Z,24512
2016-04-11T07:39:55.579Z,23072
2016-04-11T07:40:55.551Z,14888
2016-04-11T07:41:55.538Z,9504
2016-04-11T07:42:55.369Z,8592
2016-04-11T07:43:55.481Z,8484
2016-04-11T07:44:55.467Z,8432
2016-04-11T07:45:55.470Z,8444
2016-04-11T07:46:55.411Z,8456
2016-04-11T07:47:55.397Z,8472
2016-04-11T07:48:55.386Z,8476
2016-04-11T07:49:55.372Z,8484
2016-04-11T07:50:55.406Z,8496
2016-04-11T07:51:55.330Z,8540
2016-04-11T07:52:55.301Z,8572
2016-04-11T07:53:55.274Z,8620
2016-04-11T07:54:55.291Z,8648
2016-04-11T07:55:55.232Z,8660
2016-04-11T07:56:55.219Z,8692
2016-04-11T07:57:55.206Z,8724
2016-04-11T07:58:55.162Z,8736
2016-04-11T07:59:55.149Z,8772
2016-04-11T08:00:55.135Z,8776
2016-04-11T08:01:55.092Z,8776
2016-04-11T08:02:55.079Z,8792
2016-04-11T08:03:55.066Z,8816
2016-04-11T08:04:55.037Z,8824
2016-04-11T08:05:55.024Z,8840
2016-04-11T08:06:54.980Z,8872
2016-04-11T08:07:54.967Z,8908
2016-04-11T08:08:54.990Z,8932
2016-04-11T08:09:54.914Z,8952
2016-04-11T08:10:54.918Z,9024
2016-04-11T08:11:54.889Z,9060
2016-04-11T08:12:54.860Z,9116
2016-04-11T08:13:54.832Z,9128
2016-04-11T08:14:54.819Z,9180
2016-04-11T08:15:54.884Z,9224
2016-04-11T08:16:54.808Z,9240
2016-04-11T08:17:54.754Z,9248
2016-04-11T08:18:54.757Z,9256
2016-04-11T08:19:54.743Z,9256
2016-04-11T08:20:54.685Z,9268
2016-04-11T08:21:54.671Z,9280
2016-04-11T08:22:54.642Z,9280
2016-04-11T08:23:54.645Z,9268
2016-04-11T08:24:54.600Z,9252
2016-04-11T08:25:54.573Z,9252
2016-04-11T08:26:54.543Z,9276
2016-04-11T08:27:54.531Z,9312
2016-04-11T08:28:54.502Z,9320
2016-04-11T08:29:54.489Z,9360
2016-04-11T08:30:54.461Z,9376
2016-04-11T08:31:54.432Z,9396
2016-04-11T08:32:54.404Z,9392
2016-04-11T08:33:54.437Z,9412
2016-04-11T08:34:54.409Z,9448
2016-04-11T08:35:54.381Z,9448
2016-04-11T08:36:54.320Z,9464
2016-04-11T08:37:54.323Z,9492
2016-04-11T08:38:54.279Z,9456
2016-04-11T08:39:54.281Z,9440
2016-04-11T08:40:54.238Z,9432
2016-04-11T08:41:54.209Z,9444
2016-04-11T08:42:54.211Z,9412
2016-04-11T08:43:54.183Z,9428
2016-04-11T08:44:54.155Z,9396
2016-04-11T08:45:54.157Z,9368
2016-04-11T08:46:54.113Z,9304
2016-04-11T08:47:54.085Z,9292
2016-04-11T08:48:54.243Z,9248
2016-04-11T08:49:54.043Z,9280
2016-04-11T08:50:54.061Z,9284
2016-04-11T08:51:54.018Z,9240
2016-04-11T08:52:53.973Z,9212
2016-04-11T08:53:53.959Z,9200
2016-04-11T08:54:53.947Z,9176
2016-04-11T08:55:53.918Z,9132
2016-04-11T08:56:53.906Z,9096
2016-04-11T08:57:53.876Z,9080
2016-04-11T08:58:53.864Z,9096
2016-04-11T08:59:53.835Z,9120
2016-04-11T09:00:53.822Z,9124
2016-04-11T09:01:53.810Z,9100
2016-04-11T09:02:53.781Z,9096
2016-04-11T09:03:53.753Z,9104
2016-04-11T09:04:53.739Z,9092
2016-04-11T09:05:53.758Z,9052
2016-04-11T09:06:53.698Z,9048
2016-04-11T09:07:53.716Z,9036
2016-04-11T09:08:53.656Z,8980
2016-04-11T09:09:53.628Z,9004
2016-04-11T09:10:53.615Z,8956
2016-04-11T09:11:53.586Z,8960
2016-04-11T09:12:53.558Z,9016
2016-04-11T09:13:53.592Z,9052
2016-04-11T09:14:53.532Z,9028
2016-04-11T09:15:53.535Z,9108
2016-04-11T09:16:53.491Z,9172
2016-04-11T09:17:53.477Z,9232
2016-04-11T09:18:53.449Z,9280
2016-04-11T09:19:53.421Z,9324
2016-04-11T09:20:53.423Z,9396
2016-04-11T09:21:53.394Z,9440
2016-04-11T09:22:53.476Z,9312
2016-04-11T09:23:53.354Z,9276
2016-04-11T09:24:53.324Z,9320
2016-04-11T09:25:53.359Z,9448
2016-04-11T09:26:53.283Z,9492
2016-04-11T09:27:53.270Z,9500
2016-04-11T09:28:53.273Z,9556
2016-04-11T09:29:53.229Z,9564
2016-04-11T09:30:53.201Z,9512
2016-04-11T09:31:53.203Z,9540
2016-04-11T09:32:53.174Z,9528
2016-04-11T09:33:53.176Z,9476
2016-04-11T09:34:53.133Z,9500
2016-04-11T09:35:53.104Z,9432
2016-04-11T09:36:53.092Z,9456
2016-04-11T09:37:53.078Z,9496
2016-04-11T09:38:53.050Z,9528
2016-04-11T09:39:53.037Z,9492
2016-04-11T09:40:53.008Z,9492
2016-04-11T09:41:52.995Z,9520
2016-04-11T09:42:52.966Z,9576
2016-04-11T09:43:52.954Z,9612
2016-04-11T09:44:52.941Z,9640
2016-04-11T09:45:52.912Z,9636
2016-04-11T09:46:52.883Z,9624
2016-04-11T09:47:52.871Z,9644
2016-04-11T09:48:52.858Z,9664
2016-04-11T09:49:52.830Z,9648
2016-04-11T09:50:52.816Z,9680
2016-04-11T09:51:52.804Z,9664
2016-04-11T09:52:52.791Z,9672
2016-04-11T09:53:52.746Z,9736
2016-04-11T09:54:52.749Z,9804
2016-04-11T09:55:52.720Z,9820
2016-04-11T09:56:52.693Z,9788
2016-04-11T09:57:52.695Z,9704
2016-04-11T09:58:52.650Z,9660
2016-04-11T09:59:52.637Z,9664
2016-04-11T10:00:52.656Z,9712
2016-04-11T10:01:52.612Z,9720
2016-04-11T10:02:52.598Z,9708
2016-04-11T10:03:53.023Z,9724
2016-04-11T10:04:52.541Z,9736
2016-04-11T10:05:52.545Z,9748
2016-04-11T10:06:52.500Z,9748
2016-04-11T10:07:52.706Z,9772
2016-04-11T10:08:52.474Z,9804
2016-04-11T10:09:52.446Z,9820
2016-04-11T10:10:52.448Z,9832
2016-04-11T10:11:52.404Z,9832
2016-04-11T10:12:52.391Z,9824
2016-04-11T10:13:52.363Z,9748
2016-04-11T10:14:52.349Z,9696
2016-04-11T10:15:52.336Z,9660
2016-04-11T10:16:52.308Z,9656
2016-04-11T10:17:52.294Z,9648
2016-04-11T10:18:52.282Z,9652
2016-04-11T10:19:52.254Z,9736
2016-04-11T10:20:52.460Z,9708
2016-04-11T10:21:52.274Z,9684
2016-04-11T10:22:52.246Z,9608
2016-04-11T10:23:52.186Z,9560
2016-04-11T10:24:52.157Z,9560
2016-04-11T10:25:52.145Z,9532
2016-04-11T10:26:52.132Z,9636
2016-04-11T10:27:52.118Z,9684
2016-04-11T10:28:52.091Z,9708
2016-04-11T10:29:52.093Z,9784
2016-04-11T10:30:52.049Z,9832
2016-04-11T10:31:52.036Z,9868
2016-04-11T10:32:52.007Z,9816
2016-04-11T10:33:51.995Z,9832
2016-04-11T10:34:51.966Z,9864
2016-04-11T10:35:51.953Z,9852
2016-04-11T10:36:51.940Z,9864
2016-04-11T10:37:51.911Z,9856
2016-04-11T10:38:51.898Z,9848
2016-04-11T10:39:51.886Z,9868
2016-04-11T10:40:51.920Z,9828
2016-04-11T10:41:52.125Z,9776
2016-04-11T10:42:51.816Z,9756
2016-04-11T10:43:51.803Z,9700
2016-04-11T10:44:51.789Z,9604
2016-04-11T10:45:51.761Z,9496
2016-04-11T10:46:51.748Z,9396
2016-04-11T10:47:51.750Z,9412
2016-04-11T10:48:51.738Z,9404
2016-04-11T10:49:51.694Z,9384
2016-04-11T10:50:51.665Z,9320
2016-04-11T10:51:51.652Z,9324
2016-04-11T10:52:51.655Z,9312
2016-04-11T10:53:51.627Z,9320
2016-04-11T10:54:51.613Z,9372
2016-04-11T10:55:51.585Z,9440
2016-04-11T10:56:51.649Z,9448
2016-04-11T10:57:51.653Z,9396
2016-04-11T10:58:51.734Z,9352
2016-04-11T10:59:51.502Z,9400
2016-04-11T11:00:51.535Z,9348
2016-04-11T11:01:51.476Z,9348
2016-04-11T11:02:51.447Z,9368
2016-04-11T11:03:51.482Z,9348
2016-04-11T11:04:51.297Z,9372
2016-04-11T11:05:51.393Z,9388
2016-04-11T11:06:51.380Z,9436
2016-04-11T11:07:51.367Z,9476
2016-04-11T11:08:51.338Z,9456
2016-04-11T11:09:51.326Z,9476
2016-04-11T11:10:51.313Z,9516
2016-04-11T11:11:51.300Z,9568
2016-04-11T11:12:51.271Z,9524
2016-04-11T11:13:51.118Z,9532
2016-04-11T11:14:51.308Z,9552
2016-04-11T11:15:51.217Z,9564
2016-04-11T11:16:51.203Z,9592
2016-04-11T11:17:51.192Z,9628
2016-04-11T11:18:51.163Z,9640
2016-04-11T11:19:51.165Z,9708
2016-04-11T11:20:51.121Z,9780
2016-04-11T11:21:51.108Z,9868
2016-04-11T11:22:51.079Z,9884
2016-04-11T11:23:51.066Z,9876
2016-04-11T11:24:51.054Z,9876
2016-04-11T11:25:51.041Z,9872
2016-04-11T11:26:51.012Z,9876
2016-04-11T11:27:50.999Z,9912
2016-04-11T11:28:50.986Z,9912
2016-04-11T11:29:50.974Z,9856
2016-04-11T11:30:50.991Z,9880
2016-04-11T11:31:51.135Z,9952
2016-04-11T11:32:50.918Z,9916
2016-04-11T11:33:50.890Z,9900
2016-04-11T11:34:50.876Z,9904
2016-04-11T11:35:50.864Z,9888
2016-04-11T11:36:50.836Z,9864
2016-04-11T11:37:50.823Z,9860
2016-04-11T11:38:50.810Z,9864
2016-04-11T11:39:50.781Z,9840
2016-04-11T11:40:50.768Z,9824
2016-04-11T11:41:50.756Z,9808
2016-04-11T11:42:50.727Z,9796
2016-04-11T11:43:50.823Z,9824
2016-04-11T11:44:50.686Z,9876
2016-04-11T11:45:50.673Z,9892
2016-04-11T11:46:50.675Z,9924
2016-04-11T11:47:50.647Z,9916
2016-04-11T11:48:50.619Z,9868
2016-04-11T11:49:50.699Z,9836
2016-04-11T11:50:50.795Z,9796
2016-04-11T11:51:50.579Z,9792
2016-04-11T11:52:50.739Z,9776
2016-04-11T11:53:50.538Z,9692
2016-04-11T11:54:50.525Z,9624
2016-04-11T11:55:50.496Z,9604
2016-04-11T11:56:50.483Z,9592
2016-04-11T11:57:50.486Z,9564
2016-04-11T11:58:50.473Z,9496
2016-04-11T11:59:50.429Z,9488
2016-04-11T12:00:50.415Z,9484
2016-04-11T12:01:50.404Z,9468
2016-04-11T12:02:50.437Z,9488
2016-04-11T12:03:50.361Z,9540
2016-04-11T12:04:50.349Z,9548
2016-04-11T12:05:50.165Z,9616
2016-04-11T12:06:50.307Z,9696
2016-04-11T12:07:50.294Z,9708
2016-04-11T12:08:50.298Z,9764
2016-04-11T12:09:50.252Z,9924
2016-04-11T12:10:50.256Z,10008
2016-04-11T12:11:50.226Z,9988
2016-04-11T12:12:50.214Z,9940
2016-04-11T12:13:50.186Z,9968
2016-04-11T12:14:50.173Z,10008
2016-04-11T12:15:50.159Z,10012
2016-04-11T12:16:50.130Z,9940
2016-04-11T12:17:50.118Z,9936
2016-04-11T12:18:50.745Z,9992
2016-04-11T12:19:50.092Z,10008
2016-04-11T12:20:50.063Z,9932
2016-04-11T12:21:50.050Z,9840
2016-04-11T12:22:50.163Z,9868
2016-04-11T12:23:50.009Z,9916
2016-04-11T12:24:50.011Z,9952
2016-04-11T12:25:49.968Z,9848
2016-04-11T12:26:49.971Z,9776
2016-04-11T12:27:49.941Z,9796
2016-04-11T12:28:49.929Z,9828
2016-04-11T12:29:49.915Z,9932
2016-04-11T12:30:49.888Z,9992
2016-04-11T12:31:49.874Z,10012
2016-04-11T12:32:49.940Z,10080
2016-04-11T12:33:49.848Z,10172
2016-04-11T12:34:49.835Z,10188
2016-04-11T12:35:49.807Z,10204
2016-04-11T12:36:49.793Z,10252
2016-04-11T12:37:49.828Z,10332
2016-04-11T12:38:49.768Z,10408
2016-04-11T12:39:49.740Z,10380
2016-04-11T12:40:49.727Z,10404
2016-04-11T12:41:49.714Z,10332
2016-04-11T12:42:49.684Z,10296
2016-04-11T12:43:49.672Z,10232
2016-04-11T12:44:49.659Z,10192
2016-04-11T12:45:49.647Z,10164
2016-04-11T12:46:49.633Z,10176
2016-04-11T12:47:49.605Z,10180
2016-04-11T12:48:49.591Z,10196
2016-04-11T12:49:49.564Z,10248
2016-04-11T12:50:49.567Z,10312
2016-04-11T12:51:49.397Z,10360
2016-04-11T12:52:49.525Z,10404
2016-04-11T12:53:49.511Z,10468
2016-04-11T12:54:49.499Z,10460
2016-04-11T12:55:49.485Z,10448
2016-04-11T12:56:49.457Z,10464
2016-04-11T12:57:49.460Z,10436
2016-04-11T12:58:49.415Z,10456
2016-04-11T12:59:49.403Z,10520
2016-04-11T13:00:49.390Z,10564
2016-04-11T13:01:49.377Z,10600
2016-04-11T13:02:49.363Z,10620
2016-04-11T13:03:49.335Z,10624
2016-04-11T13:04:49.338Z,10656
2016-04-11T13:05:49.293Z,10652
2016-04-11T13:06:49.296Z,10648
2016-04-11T13:07:49.284Z,10644
2016-04-11T13:08:49.254Z,10600
2016-04-11T13:09:49.257Z,10592
2016-04-11T13:10:49.229Z,10612
2016-04-11T13:11:49.060Z,10600
2016-04-11T13:12:49.204Z,10572
2016-04-11T13:13:49.190Z,10576
2016-04-11T13:14:49.162Z,10604
2016-04-11T13:15:49.148Z,10604
2016-04-11T13:16:49.136Z,10644
2016-04-11T13:17:49.139Z,10680
2016-04-11T13:18:49.094Z,10704
2016-04-11T13:19:49.269Z,10712
2016-04-11T13:20:49.069Z,10752
2016-04-11T13:21:49.180Z,10740
2016-04-11T13:22:49.027Z,10788
2016-04-11T13:23:49.014Z,10856
2016-04-11T13:24:49.002Z,10828
2016-04-11T13:25:48.988Z,10748
2016-04-11T13:26:48.975Z,10700
2016-04-11T13:27:48.946Z,10604
2016-04-11T13:28:48.933Z,10504
2016-04-11T13:29:49.140Z,10468
2016-04-11T13:30:48.965Z,10444
2016-04-11T13:31:49.200Z,10488
2016-04-11T13:32:49.014Z,10496
2016-04-11T13:33:49.045Z,10444
2016-04-11T13:34:49.078Z,10460
2016-04-11T13:35:49.067Z,10500
2016-04-11T13:36:49.055Z,10508
2016-04-11T13:37:49.059Z,10580
2016-04-11T13:38:49.092Z,10596
2016-04-11T13:39:49.080Z,10600
2016-04-11T13:40:49.058Z,10588
2016-04-11T13:41:49.035Z,10572